메인 페이지
METAR-TAF:

METAR-TAF

공항 :

Dalaman, 터키

위도: 36-42N, 경도: 028-47E, 고도: 7m

현재 날씨관측

예보는 35분 전, 09:50시(UTC)에 발표되었습니다.
남서14kt풍과 서남서풍을 오가는
온도 30°C
습도 66%
기압 1005 hPa
시정 10km 이상
고도 3000ft 상공 구름 조금

METAR: LTBS 040950Z 23014KT 190V250 9999 FEW030 30/23 Q1005 NOSIG RMK RWY19 18012KT 1CU030

시각: 13:25 (10:25 UTC)

예보

예보는 5 시간 45분 전, 04:40시(UTC)에 발표되었습니다.
예보 대상 시간: 04일 06시부터 05일 06시까지 (UTC)
여러 방향의 바람 2kt
시정 10km 이상
1500m 미만 상공 구름 및 적란운 없음
전환 중
04일 06시부터 04일 08시까지 (UTC)
남서14kt
고도 3000ft 상공 구름 조금
전환 중
04일 16시부터 04일 18시까지 (UTC)
여러 방향의 바람 2kt
시정 10km 이상
1500m 미만 상공 구름 및 적란운 없음

TAF: LTBS 040440Z 0406/0506 VRB02KT CAVOK BECMG 0406/0408 23014KT FEW030 BECMG 0416/0418 VRB02KT CAVOK

4,000개 이상의 공항 관측 자료 및 예보 (METAR 및 TAF 보고).

지도상에서 검색 가능한 기상관측소가 노란 점과 빨간 점으로 표시되어 있습니다.

기상관측소 명을 보려면 표시 위로 마우스를 이동하세요.

날씨 관측과 예보를 보려면 클릭하세요.

지도 변경 : 확대하려면 엑스 표시가 있는 녹색 버튼, 축소하려면 빼기 표시가 있는 녹색 버튼, 다음 페이지의 지도를 보려면 녹색 화살표를 클릭하세요.


METAR-TAF: